Time;durP1;ratioP1;P1;durP2;ratioP2;P2;SDS_P1;SDS_P2;PMS_P1;PMS_P2;Temp;Humidity;BMP_temperature;BMP_pressure;BME280_temperature;BME280_humidity;BME280_pressure;Samples;Min_cycle;Max_cycle;Signal;HPM_P1;HPM_P2
2023/08/02 05:49:14;;;;;;;3.37;1.90;;;;;;;;;;10511165;28;20491;-85
2023/08/02 05:54:16;;;;;;;4.07;2.17;;;;;;;;;;10507117;28;20141;-85
2023/08/02 06:11:03;;;;;;;3.28;1.83;;;;;;;;;;10367577;28;20480;-85
2023/08/02 12:00:37;;;;;;;1.98;0.73;;;;;;;;;;10426854;22;20307;-78
2023/08/02 12:05:39;;;;;;;1.63;0.50;;;;;;;;;;10363664;28;20072;-79
2023/08/02 12:10:40;;;;;;;1.48;0.65;;;;;;;;;;10398924;28;20056;-79
2023/08/02 12:15:44;;;;;;;0.90;0.75;;;;;;;;;;10429070;28;20076;-80
2023/08/02 12:20:46;;;;;;;1.60;0.90;;;;;;;;;;10406335;28;20052;-78
2023/08/02 12:25:48;;;;;;;1.85;0.55;;;;;;;;;;10406192;28;20034;-78
2023/08/02 12:31:02;;;;;;;1.50;0.70;;;;;;;;;;10421766;28;20034;-80
2023/08/02 12:36:03;;;;;;;1.35;0.63;;;;;;;;;;10406375;28;20037;-81
2023/08/02 12:41:05;;;;;;;3.38;0.77;;;;;;;;;;10405990;28;20084;-80
2023/08/02 12:46:06;;;;;;;2.30;0.70;;;;;;;;;;10428456;28;20037;-79
2023/08/02 12:51:07;;;;;;;1.70;0.60;;;;;;;;;;10406282;28;20124;-81
2023/08/02 12:56:09;;;;;;;2.35;0.93;;;;;;;;;;10406164;28;20118;-80
2023/08/02 13:01:11;;;;;;;2.47;0.90;;;;;;;;;;10426057;28;20037;-80
2023/08/02 13:06:13;;;;;;;2.20;1.10;;;;;;;;;;10407475;28;20101;-82
2023/08/02 13:11:14;;;;;;;3.13;0.80;;;;;;;;;;10423919;28;20165;-80
2023/08/02 13:16:15;;;;;;;6.22;3.55;;;;;;;;;;10425187;28;20092;-79
2023/08/02 13:21:19;;;;;;;4.32;1.08;;;;;;;;;;10408304;28;20037;-79
2023/08/02 13:26:21;;;;;;;3.53;1.30;;;;;;;;;;10420916;28;20104;-79
2023/08/02 13:31:22;;;;;;;2.22;1.17;;;;;;;;;;10404872;28;20105;-80
2023/08/02 13:36:23;;;;;;;2.80;1.30;;;;;;;;;;10404575;28;20033;-79
2023/08/02 13:41:24;;;;;;;4.15;1.90;;;;;;;;;;10403847;28;20511;-80
2023/08/02 13:46:25;;;;;;;3.10;1.67;;;;;;;;;;10386240;28;20038;-78
2023/08/02 13:51:26;;;;;;;3.15;1.42;;;;;;;;;;10402490;28;20147;-78
2023/08/02 13:56:27;;;;;;;2.95;2.10;;;;;;;;;;10402358;28;20064;-78
2023/08/02 14:01:28;;;;;;;3.72;2.50;;;;;;;;;;10400583;28;20045;-78
2023/08/02 14:06:29;;;;;;;3.45;1.73;;;;;;;;;;10423106;28;20442;-78
2023/08/02 14:11:31;;;;;;;14.57;4.82;;;;;;;;;;10412777;28;20120;-79
2023/08/02 14:16:35;;;;;;;6.30;2.47;;;;;;;;;;10410453;28;20060;-79
2023/08/02 14:21:37;;;;;;;5.88;1.90;;;;;;;;;;10411539;28;20133;-79
2023/08/02 14:26:39;;;;;;;7.47;2.13;;;;;;;;;;10409511;28;20045;-79
2023/08/02 14:31:40;;;;;;;4.40;1.90;;;;;;;;;;10409998;28;20047;-79
2023/08/02 14:36:41;;;;;;;4.65;2.05;;;;;;;;;;10410490;28;20105;-79
2023/08/02 14:41:42;;;;;;;3.17;1.75;;;;;;;;;;10410459;28;20065;-79
2023/08/02 14:46:44;;;;;;;3.97;2.22;;;;;;;;;;10430101;28;20025;-78
2023/08/02 14:51:45;;;;;;;4.57;2.35;;;;;;;;;;10428261;28;20080;-79
2023/08/02 14:56:46;;;;;;;4.00;1.80;;;;;;;;;;10411136;28;20047;-80
2023/08/02 15:01:51;;;;;;;3.72;1.73;;;;;;;;;;10411784;28;20041;-81
2023/08/02 15:06:55;;;;;;;4.93;1.77;;;;;;;;;;10413977;28;20056;-83
2023/08/02 15:11:58;;;;;;;4.30;2.20;;;;;;;;;;10411643;28;20040;-81
2023/08/02 15:16:59;;;;;;;5.70;2.88;;;;;;;;;;10428117;28;20033;-78
2023/08/02 15:22:00;;;;;;;5.75;2.60;;;;;;;;;;10410237;28;20124;-79
2023/08/02 15:27:01;;;;;;;6.38;2.20;;;;;;;;;;10425795;28;20088;-79
2023/08/02 15:32:02;;;;;;;5.45;2.50;;;;;;;;;;10425763;28;20064;-79
2023/08/02 15:37:03;;;;;;;6.90;2.20;;;;;;;;;;10426009;28;20483;-80
2023/08/02 15:42:05;;;;;;;5.45;2.92;;;;;;;;;;10410399;28;20033;-83
2023/08/02 15:47:06;;;;;;;7.63;2.80;;;;;;;;;;10409959;28;20030;-79
2023/08/02 15:52:08;;;;;;;6.90;3.83;;;;;;;;;;10417511;28;20034;-80
2023/08/02 15:57:10;;;;;;;5.65;2.22;;;;;;;;;;10409063;28;20044;-81
2023/08/02 16:02:11;;;;;;;4.25;2.00;;;;;;;;;;10406869;28;20037;-79
2023/08/02 16:07:12;;;;;;;4.68;1.88;;;;;;;;;;10406100;28;20172;-79
2023/08/02 16:12:14;;;;;;;4.65;2.03;;;;;;;;;;10405565;28;20136;-79
2023/08/02 16:17:15;;;;;;;4.47;2.17;;;;;;;;;;10406252;28;20033;-80
2023/08/02 16:22:16;;;;;;;4.00;2.00;;;;;;;;;;10405009;28;20376;-80
2023/08/02 16:27:17;;;;;;;4.15;2.00;;;;;;;;;;10407161;28;20128;-79
2023/08/02 16:32:18;;;;;;;6.15;2.30;;;;;;;;;;10406303;28;20479;-80
2023/08/02 16:37:23;;;;;;;4.80;2.00;;;;;;;;;;10411529;28;20044;-80
2023/08/02 18:02:39;;;;;;;1.67;0.55;;;;;;;;;;10453944;23;20062;-86
2023/08/02 18:07:53;;;;;;;2.35;0.90;;;;;;;;;;10377075;28;20045;-87
2023/08/02 18:12:54;;;;;;;3.92;1.23;;;;;;;;;;10409997;28;20036;-87
2023/08/02 18:17:55;;;;;;;4.25;1.73;;;;;;;;;;10438810;28;20041;-86
2023/08/02 18:22:58;;;;;;;5.90;1.70;;;;;;;;;;10428108;28;20030;-87
2023/08/02 18:28:51;;;;;;;5.28;1.73;;;;;;;;;;10410787;28;20034;-86
2023/08/02 18:34:14;;;;;;;8.38;2.75;;;;;;;;;;10431920;28;20033;-87
2023/08/02 18:39:45;;;;;;;8.50;2.45;;;;;;;;;;10409594;28;20041;-87
2023/08/02 18:44:54;;;;;;;5.78;2.33;;;;;;;;;;10223338;29;20036;-83
2023/08/02 18:50:19;;;;;;;5.28;1.27;;;;;;;;;;10207352;29;20032;-83
2023/08/02 18:55:23;;;;;;;9.35;3.55;;;;;;;;;;10212881;29;20047;-87
2023/08/02 19:00:25;;;;;;;6.25;2.58;;;;;;;;;;10220621;29;20039;-86
2023/08/02 19:05:27;;;;;;;4.13;1.70;;;;;;;;;;10410808;28;20029;-86
2023/08/02 19:10:34;;;;;;;10.35;4.00;;;;;;;;;;10439209;28;20033;-86
